Time;durP1;ratioP1;P1;durP2;ratioP2;P2;SDS_P1;SDS_P2;PMS_P1;PMS_P2;Temp;Humidity;BMP_temperature;BMP_pressure;BME280_temperature;BME280_humidity;BME280_pressure;Samples;Min_cycle;Max_cycle;Signal;HPM_P1;HPM_P2
2021/06/22 00:00:41;;;;;;;6.73;5.75;;;;;;;22.71;61.83;95987.84;127899;1090;30867;-90
2021/06/22 00:03:24;;;;;;;9.10;6.13;;;;;;;22.67;61.91;95992.44;127702;1093;113608;-88
2021/06/22 00:05:56;;;;;;;7.93;6.25;;;;;;;22.58;62.12;95989.25;127913;1093;30132;-88
2021/06/22 00:08:27;;;;;;;7.73;6.33;;;;;;;22.50;62.14;95993.79;127586;1093;114547;-89
2021/06/22 00:10:59;;;;;;;8.47;6.63;;;;;;;22.46;62.34;95999.16;127922;1093;33848;-89
2021/06/22 00:13:30;;;;;;;7.28;6.43;;;;;;;22.41;62.67;95991.41;127905;1093;23907;-91
2021/06/22 00:16:02;;;;;;;9.18;6.15;;;;;;;22.38;63.42;95984.05;127779;1093;113879;-91
2021/06/22 00:18:33;;;;;;;7.75;6.45;;;;;;;22.35;63.44;95987.46;127867;1093;23303;-90
2021/06/22 00:21:05;;;;;;;9.53;6.58;;;;;;;22.35;63.82;95992.86;127775;1093;113699;-90
2021/06/22 00:23:36;;;;;;;8.60;5.95;;;;;;;22.36;63.37;95989.02;127946;1093;22829;-90
2021/06/22 00:26:08;;;;;;;7.25;6.15;;;;;;;22.36;63.61;95982.83;127811;1093;114526;-89
2021/06/22 00:28:39;;;;;;;9.35;6.15;;;;;;;22.31;63.29;95980.47;127926;1092;22842;-90
2021/06/22 00:31:12;;;;;;;8.70;6.33;;;;;;;22.32;63.63;95972.00;127911;1093;41659;-89
2021/06/22 00:33:44;;;;;;;10.78;6.63;;;;;;;22.33;63.23;95987.05;127795;1093;114437;-89
2021/06/22 00:36:15;;;;;;;8.20;6.60;;;;;;;22.35;63.93;95978.58;127883;1093;25021;-89
2021/06/22 00:38:46;;;;;;;7.43;6.15;;;;;;;22.32;63.53;95972.00;127827;1093;114178;-91
2021/06/22 00:41:18;;;;;;;6.98;5.38;;;;;;;22.33;63.63;95968.16;127918;1093;24079;-91
2021/06/22 00:43:49;;;;;;;8.73;6.15;;;;;;;22.34;63.34;95977.80;127931;1093;25733;-92
2021/06/22 00:46:21;;;;;;;8.80;6.58;;;;;;;22.38;63.63;95975.94;127878;1092;113684;-93
2021/06/22 00:48:52;;;;;;;7.25;6.05;;;;;;;22.39;63.33;95971.31;127986;1093;24894;-90
2021/06/22 00:51:24;;;;;;;6.40;5.75;;;;;;;22.40;63.41;95968.24;127848;1093;113847;-95
2021/06/22 00:53:56;;;;;;;6.55;5.88;;;;;;;22.42;63.55;95968.64;127869;1092;23858;-90
2021/06/22 00:56:30;;;;;;;10.48;6.28;;;;;;;22.42;63.38;95963.24;127812;1093;114289;-90
2021/06/22 00:59:02;;;;;;;8.05;6.03;;;;;;;22.45;63.28;95962.50;127873;1093;22826;-91
2021/06/22 01:01:34;;;;;;;6.93;5.75;;;;;;;22.42;63.24;95959.77;127909;1093;24133;-94
2021/06/22 01:04:05;;;;;;;9.28;5.83;;;;;;;22.39;63.37;95961.28;127819;1092;113681;-92
2021/06/22 01:06:37;;;;;;;9.43;6.78;;;;;;;22.41;63.49;95952.81;127934;1093;24189;-92
2021/06/22 01:09:09;;;;;;;8.35;6.48;;;;;;;22.45;63.43;95959.80;127773;1093;114132;-93
2021/06/22 01:11:41;;;;;;;7.65;6.58;;;;;;;22.44;63.64;95969.05;127896;1093;27802;-91
2021/06/22 01:14:13;;;;;;;11.20;6.73;;;;;;;22.46;63.75;95964.05;127777;1093;113867;-93
2021/06/22 01:16:44;;;;;;;7.50;6.23;;;;;;;22.49;63.45;95957.90;127890;1093;28849;-94
2021/06/22 01:19:16;;;;;;;7.83;6.40;;;;;;;22.48;63.42;95959.05;127881;1093;26427;-90
2021/06/22 01:21:48;;;;;;;8.57;6.90;;;;;;;22.43;63.43;95955.91;127818;1093;113855;-91
2021/06/22 01:24:21;;;;;;;9.15;6.88;;;;;;;22.39;63.65;95947.01;127960;1093;22801;-90
2021/06/22 01:26:57;;;;;;;10.05;7.03;;;;;;;22.35;63.08;95951.58;127857;1093;114143;-91
2021/06/22 01:29:29;;;;;;;7.25;6.45;;;;;;;22.30;63.97;95958.09;127670;1093;22951;-90
2021/06/22 01:32:01;;;;;;;7.35;6.63;;;;;;;22.33;63.71;95951.17;127869;1093;27114;-90
2021/06/22 01:34:33;;;;;;;8.33;6.70;;;;;;;22.36;63.96;95963.92;127764;1093;114423;-93
2021/06/22 01:37:10;;;;;;;8.28;6.75;;;;;;;22.36;63.77;95962.00;127902;1093;22826;-90
2021/06/22 01:39:42;;;;;;;10.05;7.30;;;;;;;22.34;64.06;95964.30;127767;1093;114405;-91
2021/06/22 01:42:13;;;;;;;8.40;7.20;;;;;;;22.32;63.86;95961.20;127921;1093;23489;-89
2021/06/22 01:44:47;;;;;;;7.53;6.18;;;;;;;22.30;64.54;95962.72;127779;1093;114196;-92
2021/06/22 01:47:18;;;;;;;9.23;6.13;;;;;;;22.20;64.25;95962.22;127849;1092;24619;-91
2021/06/22 01:49:56;;;;;;;7.50;6.43;;;;;;;22.19;64.67;95960.67;127924;1093;24497;-92
2021/06/22 01:52:28;;;;;;;7.85;6.35;;;;;;;22.18;64.44;95961.81;127788;1093;114243;-91
2021/06/22 01:55:08;;;;;;;8.40;6.40;;;;;;;22.19;64.37;95971.47;127897;1093;24688;-91
2021/06/22 01:57:39;;;;;;;8.73;6.38;;;;;;;22.21;64.57;95960.30;127769;1093;113823;-88
2021/06/22 02:00:14;;;;;;;9.95;6.88;;;;;;;22.18;64.28;95961.04;127841;1093;24067;-90
2021/06/22 02:02:46;;;;;;;7.85;5.85;;;;;;;22.16;64.26;95966.03;127782;1093;113854;-90
2021/06/22 02:05:17;;;;;;;9.35;6.80;;;;;;;22.10;64.52;95962.09;127856;1093;23905;-92
2021/06/22 02:07:49;;;;;;;7.50;6.25;;;;;;;22.14;64.36;95955.61;127872;1092;28012;-91
2021/06/22 02:10:20;;;;;;;8.98;6.50;;;;;;;22.15;64.25;95953.69;127765;1093;114450;-91
2021/06/22 02:12:52;;;;;;;8.53;6.38;;;;;;;22.14;64.21;95949.44;127942;1093;22845;-90
2021/06/22 02:15:23;;;;;;;8.35;6.50;;;;;;;22.10;64.24;95949.41;127853;1093;113740;-90
2021/06/22 02:17:55;;;;;;;8.47;6.50;;;;;;;22.06;64.71;95953.19;127941;1093;39635;-89
2021/06/22 02:20:27;;;;;;;9.70;6.28;;;;;;;22.04;64.36;95945.42;127801;1093;112902;-90
2021/06/22 02:22:59;;;;;;;9.30;6.40;;;;;;;22.11;64.47;95950.17;127909;1093;27652;-90
2021/06/22 02:25:30;;;;;;;7.45;6.20;;;;;;;22.15;64.86;95961.78;127902;1093;25910;-91
2021/06/22 02:28:07;;;;;;;7.58;6.25;;;;;;;22.10;64.48;95953.99;127828;1093;113706;-90
2021/06/22 02:30:39;;;;;;;8.70;7.28;;;;;;;22.04;64.73;95963.55;127890;1093;42741;-90
2021/06/22 02:33:12;;;;;;;8.53;6.65;;;;;;;21.96;65.12;95969.99;127739;1091;114736;-85
2021/06/22 02:35:43;;;;;;;6.88;5.80;;;;;;;21.81;65.57;95985.23;128014;1093;23483;-85
2021/06/22 02:38:15;;;;;;;7.18;6.48;;;;;;;21.67;65.89;95991.20;127665;1093;114051;-84
2021/06/22 02:40:47;;;;;;;9.25;6.80;;;;;;;21.66;66.04;95984.26;127894;1093;27368;-88
2021/06/22 02:43:19;;;;;;;7.25;6.30;;;;;;;21.72;65.83;95992.83;127832;1093;27621;-86
2021/06/22 02:45:51;;;;;;;8.05;6.93;;;;;;;21.73;65.79;95988.98;127851;1093;114150;-88
2021/06/22 02:48:22;;;;;;;8.30;6.70;;;;;;;21.77;66.12;95987.88;127902;1093;23813;-85
2021/06/22 02:50:54;;;;;;;8.55;6.23;;;;;;;21.81;65.90;95985.23;127928;1093;113267;-87
2021/06/22 02:53:25;;;;;;;7.23;6.23;;;;;;;21.86;65.79;95988.40;127836;1093;27104;-83
2021/06/22 02:55:56;;;;;;;7.00;5.80;;;;;;;21.90;65.95;95991.91;127858;1093;22985;-84
2021/06/22 02:58:36;;;;;;;8.68;6.45;;;;;;;21.94;65.84;95995.42;127716;1092;113722;-86
2021/06/22 03:01:08;;;;;;;7.18;6.23;;;;;;;21.94;65.81;95998.13;127855;1091;53452;-86
2021/06/22 03:03:39;;;;;;;7.10;6.18;;;;;;;21.89;65.82;96001.16;127658;1093;113845;-86
2021/06/22 03:06:11;;;;;;;8.65;6.88;;;;;;;21.86;66.05;96006.52;127812;1093;23225;-87
2021/06/22 03:08:42;;;;;;;8.60;7.70;;;;;;;21.87;66.09;96005.37;127772;1093;114632;-87
2021/06/22 03:11:13;;;;;;;8.55;6.95;;;;;;;21.91;65.95;96006.96;127867;1093;49296;-87
2021/06/22 03:13:45;;;;;;;7.35;5.93;;;;;;;21.94;66.05;96011.63;127907;1093;26858;-86
2021/06/22 03:16:16;;;;;;;9.10;6.58;;;;;;;21.91;66.08;96016.98;127811;1093;113873;-89
2021/06/22 03:18:47;;;;;;;7.75;6.68;;;;;;;21.87;66.17;96021.56;127931;1093;24586;-87
2021/06/22 03:21:19;;;;;;;10.65;6.68;;;;;;;21.87;66.20;96010.77;127856;1093;113272;-86
2021/06/22 03:23:50;;;;;;;8.43;7.05;;;;;;;21.87;65.85;96013.47;127974;1093;22947;-86
2021/06/22 03:26:21;;;;;;;7.83;7.03;;;;;;;21.85;66.32;96008.44;127873;1093;114077;-86
2021/06/22 03:28:53;;;;;;;9.25;6.58;;;;;;;21.82;66.23;96017.27;127949;1093;23703;-87
2021/06/22 03:31:24;;;;;;;8.80;6.23;;;;;;;21.82;66.44;96017.27;128000;1093;23797;-86
2021/06/22 03:33:56;;;;;;;7.97;6.53;;;;;;;21.86;66.54;96009.98;127807;1093;113811;-85
2021/06/22 03:36:28;;;;;;;8.73;6.27;;;;;;;21.91;66.72;96012.36;127878;1093;28075;-86
2021/06/22 03:39:00;;;;;;;7.75;6.60;;;;;;;22.03;66.63;96013.28;127713;1092;113717;-86
2021/06/22 03:41:33;;;;;;;7.13;6.40;;;;;;;22.09;66.88;96015.30;127795;1093;47818;-84
2021/06/22 03:44:05;;;;;;;8.80;6.85;;;;;;;22.14;66.04;96008.83;127820;1093;43425;-84
2021/06/22 03:46:37;;;;;;;7.43;6.25;;;;;;;22.17;66.42;96010.78;127694;1093;113540;-86
2021/06/22 03:49:09;;;;;;;8.20;6.53;;;;;;;22.20;66.76;96012.75;127780;1093;29218;-85
2021/06/22 03:51:40;;;;;;;9.35;7.00;;;;;;;22.20;67.01;96010.83;127764;1093;113657;-85
2021/06/22 03:54:11;;;;;;;9.10;7.40;;;;;;;22.23;66.72;96006.61;127844;1093;48976;-87
2021/06/22 03:56:43;;;;;;;10.28;6.83;;;;;;;22.32;67.43;96017.91;127767;1093;114265;-87
2021/06/22 03:59:14;;;;;;;7.07;6.37;;;;;;;22.44;67.28;96006.86;127791;1093;25620;-85
2021/06/22 04:01:45;;;;;;;8.63;6.45;;;;;;;22.57;66.74;96007.39;127818;1093;23146;-86
2021/06/22 04:04:17;;;;;;;8.33;6.70;;;;;;;22.66;66.57;96004.38;127667;1093;114185;-87
2021/06/22 04:06:48;;;;;;;8.03;6.70;;;;;;;22.72;66.67;96006.38;127773;1092;24618;-86
2021/06/22 04:09:25;;;;;;;9.43;6.38;;;;;;;22.78;66.22;96010.29;127776;1093;113934;-88
2021/06/22 04:11:57;;;;;;;7.68;6.08;;;;;;;22.85;65.76;96006.92;127788;1093;35650;-86
2021/06/22 04:14:28;;;;;;;8.28;6.78;;;;;;;22.92;66.21;96006.97;127788;1093;115024;-86
2021/06/22 04:16:59;;;;;;;9.23;7.20;;;;;;;22.98;66.06;96010.13;127853;1093;22810;-86
2021/06/22 04:19:31;;;;;;;8.40;6.55;;;;;;;23.04;65.91;96008.63;127883;1093;23406;-85
2021/06/22 04:22:02;;;;;;;8.08;6.18;;;;;;;23.10;65.88;96007.16;127802;1093;113713;-86
2021/06/22 04:24:33;;;;;;;9.33;6.53;;;;;;;23.17;66.26;96012.61;127940;1093;22847;-88
2021/06/22 04:27:06;;;;;;;7.85;6.55;;;;;;;23.22;66.55;96006.06;127737;1093;113739;-86
2021/06/22 04:29:37;;;;;;;9.75;6.80;;;;;;;23.18;66.25;96010.67;127815;1093;26315;-87
2021/06/22 04:32:10;;;;;;;11.25;6.95;;;;;;;23.14;65.77;96013.36;127763;1093;22948;-86
2021/06/22 04:34:41;;;;;;;10.10;7.05;;;;;;;23.11;65.71;96019.52;127755;1093;114043;-88
2021/06/22 04:37:12;;;;;;;9.48;7.05;;;;;;;23.06;65.37;96023.32;127883;1092;24314;-86
2021/06/22 04:39:44;;;;;;;9.33;6.90;;;;;;;23.05;65.80;96027.17;127825;1092;113714;-85
2021/06/22 04:42:18;;;;;;;8.50;7.28;;;;;;;23.01;65.54;96029.08;127769;1093;23068;-85
2021/06/22 04:44:49;;;;;;;10.18;6.80;;;;;;;22.99;65.40;96038.72;127728;1092;114646;-85
2021/06/22 04:47:23;;;;;;;8.33;7.00;;;;;;;22.95;65.35;96041.39;127942;1093;22799;-86
2021/06/22 04:49:55;;;;;;;9.48;6.60;;;;;;;22.96;65.27;96037.55;127964;1093;22944;-86
2021/06/22 04:52:26;;;;;;;9.58;6.48;;;;;;;22.91;65.16;96047.89;127595;1093;113843;-86
2021/06/22 04:54:57;;;;;;;9.25;7.33;;;;;;;22.86;65.59;96049.02;127833;1093;49339;-86
2021/06/22 04:57:29;;;;;;;9.28;7.18;;;;;;;22.80;65.18;96047.75;127767;1093;114458;-87
2021/06/22 05:00:00;;;;;;;10.30;7.15;;;;;;;22.84;65.32;96050.55;127929;1093;27070;-87
2021/06/22 05:02:32;;;;;;;9.20;6.93;;;;;;;22.91;65.64;96054.08;127804;1093;113444;-89
2021/06/22 05:05:05;;;;;;;9.08;6.60;;;;;;;22.98;65.77;96051.45;127743;1093;26818;-88
2021/06/22 05:07:36;;;;;;;10.93;7.35;;;;;;;23.17;65.53;96049.69;127926;1093;40197;-86
2021/06/22 05:10:10;;;;;;;9.25;6.90;;;;;;;23.35;65.35;96048.67;127769;1092;114276;-89
2021/06/22 05:12:43;;;;;;;11.35;7.33;;;;;;;23.53;65.25;96042.65;127808;1093;22785;-90
2021/06/22 05:15:15;;;;;;;8.80;7.33;;;;;;;23.73;64.94;96043.97;127820;1093;113951;-89
2021/06/22 05:17:47;;;;;;;8.78;6.88;;;;;;;23.95;64.22;96042.17;127873;1091;22836;-86
2021/06/22 05:20:18;;;;;;;8.55;7.18;;;;;;;24.10;63.85;96049.22;127868;1093;34140;-88
2021/06/22 05:22:50;;;;;;;10.95;7.35;;;;;;;24.23;63.80;96068.63;127800;1093;114246;-90
2021/06/22 05:25:21;;;;;;;8.35;6.93;;;;;;;24.53;63.68;96066.47;128014;1093;26953;-87
2021/06/22 05:27:53;;;;;;;8.75;6.93;;;;;;;25.11;63.18;96070.13;127891;1093;114185;-88
2021/06/22 05:30:25;;;;;;;8.13;6.95;;;;;;;25.72;62.67;96065.51;127957;1093;26273;-89
2021/06/22 05:32:56;;;;;;;7.97;6.73;;;;;;;26.33;60.53;96068.89;127720;1093;114681;-86
2021/06/22 05:35:28;;;;;;;9.73;7.33;;;;;;;26.60;59.14;96085.48;127933;1093;23092;-86
2021/06/22 05:37:59;;;;;;;7.15;5.73;;;;;;;26.36;58.81;96078.22;127824;1093;26740;-87
2021/06/22 05:40:30;;;;;;;8.35;6.75;;;;;;;26.65;58.77;96074.22;127822;1092;114944;-87
2021/06/22 05:43:03;;;;;;;7.65;6.28;;;;;;;27.05;58.37;96067.43;127852;1093;25707;-88
2021/06/22 05:45:34;;;;;;;8.37;6.77;;;;;;;27.64;57.70;96064.68;127821;1093;113753;-85
2021/06/22 05:48:07;;;;;;;8.95;6.10;;;;;;;28.02;55.55;96070.17;127752;1093;24014;-86
2021/06/22 05:50:39;;;;;;;8.33;6.50;;;;;;;27.94;54.51;96076.86;127751;1093;114113;-87
2021/06/22 05:53:10;;;;;;;7.90;6.35;;;;;;;28.09;54.25;96080.98;127742;1093;25657;-87
2021/06/22 05:55:41;;;;;;;8.85;6.38;;;;;;;28.07;53.70;96072.45;128004;1092;30769;-88
2021/06/22 05:58:13;;;;;;;9.05;6.18;;;;;;;28.23;53.58;96075.38;129317;1091;114637;-85
2021/06/22 06:00:44;;;;;;;11.58;6.83;;;;;;;28.43;52.88;96069.34;128380;1093;25362;-88
2021/06/22 06:03:16;;;;;;;8.15;6.38;;;;;;;28.52;52.52;96059.49;127519;1092;169298;-88
2021/06/22 06:05:50;;;;;;;8.33;6.08;;;;;;;28.44;52.63;96060.01;127829;1093;51056;-88
2021/06/22 06:08:21;;;;;;;7.60;6.28;;;;;;;28.59;52.89;96062.15;127910;1093;24754;-87
2021/06/22 06:10:53;;;;;;;8.85;6.15;;;;;;;28.89;52.63;96061.39;127961;1093;113586;-87
2021/06/22 06:13:32;;;;;;;7.85;5.93;;;;;;;29.17;50.98;96053.98;127960;1093;23212;-87
2021/06/22 06:16:03;;;;;;;9.28;6.60;;;;;;;29.28;51.21;96054.59;127835;1092;114501;-87
2021/06/22 06:18:35;;;;;;;6.75;5.90;;;;;;;29.58;51.59;96061.17;127936;1092;31347;-86
2021/06/22 06:21:07;;;;;;;7.45;6.28;;;;;;;30.11;50.89;96063.75;127827;1093;113854;-91
2021/06/22 06:23:40;;;;;;;8.28;6.23;;;;;;;30.66;50.80;96061.54;127942;1092;22803;-92
2021/06/22 06:26:14;;;;;;;7.08;5.63;;;;;;;31.33;50.03;96058.53;127911;1093;24084;-90
2021/06/22 06:28:50;;;;;;;10.63;6.15;;;;;;;31.69;48.98;96045.52;127821;1093;114380;-92
2021/06/22 06:31:22;;;;;;;7.18;6.33;;;;;;;32.03;48.06;96049.76;127767;1093;42391;-88
2021/06/22 06:33:54;;;;;;;8.95;5.75;;;;;;;32.16;47.00;96047.84;127532;1093;113897;-89
2021/06/22 06:36:25;;;;;;;7.28;5.48;;;;;;;32.35;46.62;96055.16;127756;1093;59744;-86
2021/06/22 06:38:56;;;;;;;7.10;5.40;;;;;;;32.45;45.95;96065.08;127613;1093;113859;-89
2021/06/22 06:41:28;;;;;;;6.23;5.48;;;;;;;32.66;45.80;96068.44;119289;1093;7718707;-90
2021/06/22 06:43:59;;;;;;;8.08;5.83;;;;;;;32.85;44.59;96063.98;127887;1093;23662;-90
2021/06/22 06:46:31;;;;;;;6.98;5.28;;;;;;;33.10;44.80;96061.27;127687;1093;114081;-89
2021/06/22 06:49:02;;;;;;;8.40;5.50;;;;;;;33.51;44.82;96060.38;127468;1093;77764;-90
2021/06/22 06:51:34;;;;;;;8.38;5.55;;;;;;;33.87;43.83;96065.48;127699;1091;114181;-91
2021/06/22 06:54:06;;;;;;;7.33;6.03;;;;;;;34.06;43.53;96068.39;127883;1092;22789;-91
2021/06/22 06:56:37;;;;;;;8.28;5.45;;;;;;;34.14;42.59;96078.72;127807;1091;114585;-91
2021/06/22 06:59:09;;;;;;;7.27;6.03;;;;;;;34.05;41.60;96084.13;126254;1093;2228343;-92
2021/06/22 07:01:40;;;;;;;8.60;6.00;;;;;;;33.97;41.94;96088.35;127721;1093;127054;-92
2021/06/22 07:04:12;;;;;;;7.23;5.58;;;;;;;34.09;41.84;96082.05;127726;1093;114823;-92
2021/06/22 07:06:43;;;;;;;6.43;5.25;;;;;;;33.94;40.79;96100.25;127801;1093;72420;-92
2021/06/22 07:09:15;;;;;;;6.33;4.93;;;;;;;34.07;40.97;96094.72;127811;1093;114282;-94
2021/06/22 07:11:46;;;;;;;7.03;5.48;;;;;;;34.30;40.89;96099.02;127783;1093;23480;-94
2021/06/22 07:14:18;;;;;;;7.43;5.25;;;;;;;34.38;40.12;96103.86;127880;1093;44262;-89
2021/06/22 07:16:49;;;;;;;5.78;5.18;;;;;;;34.22;40.78;96101.27;127788;1092;113567;-90
2021/06/22 07:19:21;;;;;;;6.70;5.35;;;;;;;34.47;40.83;96094.89;127785;1093;52281;-91
2021/06/22 07:21:52;;;;;;;8.30;5.03;;;;;;;34.85;40.31;96102.95;127873;1093;113955;-90
2021/06/22 07:24:24;;;;;;;6.15;4.45;;;;;;;35.25;39.55;96108.54;127933;1093;30897;-91
2021/06/22 07:26:55;;;;;;;7.10;5.23;;;;;;;35.50;39.19;96107.59;127655;1093;113873;-86
2021/06/22 07:29:27;;;;;;;5.53;4.80;;;;;;;35.91;39.39;96100.06;127805;1093;24440;-89
2021/06/22 07:31:58;;;;;;;6.75;4.60;;;;;;;36.14;37.87;96104.98;127891;1092;24128;-90
2021/06/22 07:34:29;;;;;;;8.23;4.90;;;;;;;36.24;38.36;96105.76;127781;1093;114213;-88
2021/06/22 07:37:01;;;;;;;7.13;4.88;;;;;;;36.67;37.78;96101.16;126880;1093;1201085;-90
2021/06/22 07:39:32;;;;;;;7.50;4.58;;;;;;;36.74;37.75;96100.83;127905;1093;114298;-93
2021/06/22 07:42:04;;;;;;;6.88;5.05;;;;;;;37.09;36.96;96096.48;128022;1092;28766;-95
2021/06/22 07:44:36;;;;;;;6.28;5.10;;;;;;;37.20;35.77;96098.75;127840;1091;114041;-96
2021/06/22 07:47:07;;;;;;;5.88;4.83;;;;;;;36.99;35.88;96100.49;127907;1093;34052;-94
2021/06/22 07:49:39;;;;;;;6.53;4.70;;;;;;;37.10;35.26;96098.00;127883;1092;41793;-90
2021/06/22 07:52:10;;;;;;;7.20;4.15;;;;;;;36.71;34.94;96102.52;127730;1091;113280;-94
2021/06/22 07:54:42;;;;;;;5.45;4.70;;;;;;;36.38;34.43;96113.45;127874;1093;40954;-92
2021/06/22 07:57:13;;;;;;;6.18;5.10;;;;;;;36.18;35.45;96107.61;127818;1093;114066;-94
2021/06/22 07:59:45;;;;;;;5.85;4.50;;;;;;;36.51;35.21;96116.83;128083;1092;23243;-91
2021/06/22 08:02:16;;;;;;;6.63;4.73;;;;;;;36.09;35.66;96118.63;127946;1093;25123;-96
2021/06/22 08:04:48;;;;;;;6.45;4.55;;;;;;;36.20;36.49;96124.47;127877;1092;113522;-91
2021/06/22 08:07:19;;;;;;;6.33;5.10;;;;;;;36.35;35.43;96125.42;127952;1092;26364;-92
2021/06/22 08:09:51;;;;;;;5.90;4.83;;;;;;;36.37;35.49;96127.72;127980;1091;113798;-91
2021/06/22 08:12:22;;;;;;;6.93;5.38;;;;;;;36.24;35.26;96130.60;128007;1092;68964;-91
2021/06/22 08:14:53;;;;;;;4.90;4.33;;;;;;;36.42;35.67;96129.86;128142;1093;113965;-92
2021/06/22 08:17:31;;;;;;;6.70;4.60;;;;;;;36.76;34.68;96131.54;128375;1092;52265;-96
2021/06/22 08:20:05;;;;;;;5.75;4.90;;;;;;;36.97;34.17;96135.36;123494;1092;5284672;-96
2021/06/22 08:22:38;;;;;;;6.38;5.20;;;;;;;36.65;34.46;96128.48;128039;1092;114208;-96
2021/06/22 08:25:13;;;;;;;5.63;4.78;;;;;;;36.82;34.35;96137.99;128180;1092;35504;-94
2021/06/22 08:27:45;;;;;;;6.13;4.73;;;;;;;36.92;34.23;96127.70;127877;1093;113694;-96
2021/06/22 08:30:19;;;;;;;5.13;4.63;;;;;;;36.76;33.88;96143.35;127917;1093;29734;-96
2021/06/22 08:32:51;;;;;;;5.93;4.68;;;;;;;36.88;34.08;96124.31;127814;1093;113841;-94
2021/06/22 08:35:24;;;;;;;5.33;4.50;;;;;;;36.76;33.98;96120.48;128012;1093;31814;-95
2021/06/22 08:37:57;;;;;;;5.95;4.60;;;;;;;37.00;34.75;96124.13;127934;1093;26278;-95
2021/06/22 08:40:30;;;;;;;5.53;4.68;;;;;;;37.39;33.75;96121.58;127857;1092;113854;-95
2021/06/22 08:43:02;;;;;;;7.43;4.85;;;;;;;37.48;32.74;96129.08;127870;1093;37835;-95
2021/06/22 08:45:35;;;;;;;5.13;3.45;;;;;;;37.18;31.36;96119.80;127824;1093;114347;-94
2021/06/22 08:51:07;;;;;;;6.43;3.33;;;;;;;34.97;30.97;96128.91;127944;1093;113151;-96
2021/06/22 08:53:40;;;;;;;5.50;3.55;;;;;;;34.02;31.83;96131.02;127151;1093;1711667;-96
2021/06/22 08:56:12;;;;;;;3.97;2.97;;;;;;;33.82;32.75;96128.52;124345;1093;3027085;-96
2021/06/22 08:58:44;;;;;;;4.38;3.28;;;;;;;33.77;32.69;96134.55;128610;1093;112961;-96
2021/06/22 09:01:31;;;;;;;6.90;4.30;;;;;;;33.34;33.26;96131.17;123864;1093;5351302;-96
2021/06/22 09:04:07;;;;;;;5.78;4.30;;;;;;;33.15;34.39;96126.63;128714;1093;113188;-96
2021/06/22 09:06:48;;;;;;;5.88;4.43;;;;;;;33.31;34.59;96123.02;128897;1092;60699;-96
2021/06/22 09:10:02;;;;;;;4.70;3.35;;;;;;;33.03;32.87;96125.41;127467;1093;1094042;-96
2021/06/22 09:12:42;;;;;;;5.93;3.60;;;;;;;32.95;32.82;96121.34;120829;1093;5178524;-96
2021/06/22 09:15:22;;;;;;;6.29;4.54;;;;;;;32.99;33.91;96123.98;119342;1093;5200763;-96
2021/06/22 09:18:07;;;;;;;7.03;5.28;;;;;;;33.04;32.94;96115.95;123976;1093;2761376;-96
2021/06/22 09:20:56;;;;;;;6.58;3.90;;;;;;;32.79;33.39;96122.13;124905;1093;2541331;-96
2021/06/22 09:23:35;;;;;;;8.90;5.13;;;;;;;32.95;36.33;96113.10;128210;1093;55088;-95
2021/06/22 09:26:15;;;;;;;12.68;5.75;;;;;;;32.84;38.10;96115.39;127998;1093;32688;-96
2021/06/22 09:28:48;;;;;;;9.30;5.50;;;;;;;32.51;39.48;96117.44;127952;1093;112837;-96
2021/06/22 09:31:21;;;;;;;9.53;6.60;;;;;;;32.53;39.98;96111.55;128458;1092;40716;-96
2021/06/22 09:33:54;;;;;;;10.20;6.53;;;;;;;32.54;40.39;96115.83;128892;1093;113020;-96
2021/06/22 09:36:29;;;;;;;9.20;6.93;;;;;;;32.36;40.97;96099.83;128331;1093;63649;-96
2021/06/22 09:39:05;;;;;;;9.70;6.63;;;;;;;32.02;40.72;96114.03;128195;1093;30991;-96
2021/06/22 09:41:39;;;;;;;9.05;6.20;;;;;;;31.69;41.77;96127.73;128680;1093;112632;-96
2021/06/22 09:44:14;;;;;;;7.78;6.95;;;;;;;31.56;42.52;96137.84;128888;1092;75412;-96
2021/06/22 09:46:49;;;;;;;10.93;7.38;;;;;;;31.23;43.40;96143.25;128769;1093;113751;-96
2021/06/22 09:49:31;;;;;;;9.80;7.18;;;;;;;31.06;44.44;96154.56;128457;1093;74261;-93
2021/06/22 09:52:08;;;;;;;11.28;7.00;;;;;;;30.73;45.13;96149.75;127950;1093;113175;-95
2021/06/22 09:54:50;;;;;;;10.90;7.63;;;;;;;30.54;45.32;96152.43;128790;1093;72368;-96
2021/06/22 09:57:28;;;;;;;8.73;7.10;;;;;;;30.46;45.83;96146.34;129216;1092;112770;-96
2021/06/22 10:00:08;;;;;;;8.68;6.85;;;;;;;30.61;45.54;96135.89;126149;1093;1833606;-96
2021/06/22 10:02:55;;;;;;;10.70;7.68;;;;;;;30.66;45.80;96149.88;125435;1092;2001255;-96
2021/06/22 10:05:27;;;;;;;9.10;6.45;;;;;;;30.70;44.74;96134.17;127307;1093;138295;-96
2021/06/22 10:08:02;;;;;;;10.05;7.05;;;;;;;30.69;44.55;96140.84;127766;1093;66302;-95
2021/06/22 10:10:41;;;;;;;10.00;7.10;;;;;;;30.68;45.07;96136.53;127662;1092;114031;-96
2021/06/22 10:13:43;;;;;;;7.58;6.48;;;;;;;30.76;44.52;96145.39;127813;1093;64012;-96
2021/06/22 10:16:25;;;;;;;9.08;6.75;;;;;;;30.71;44.90;96152.14;127753;1093;113713;-95
2021/06/22 10:18:56;;;;;;;10.33;6.60;;;;;;;30.55;45.36;96154.00;126599;1093;1998025;-95
2021/06/22 10:21:30;;;;;;;8.05;6.63;;;;;;;30.47;45.82;96150.61;128686;1092;113353;-95
2021/06/22 10:24:03;;;;;;;10.18;6.95;;;;;;;30.39;45.26;96149.19;127665;1093;32302;-95
2021/06/22 10:26:35;;;;;;;9.08;6.65;;;;;;;30.14;45.08;96152.39;127622;1093;27919;-96
2021/06/22 10:29:07;;;;;;;7.98;6.38;;;;;;;30.11;45.50;96148.50;127518;1093;114322;-95
2021/06/22 10:31:41;;;;;;;9.05;6.83;;;;;;;30.12;46.01;96150.08;127626;1093;40562;-95
2021/06/22 10:34:12;;;;;;;10.05;6.80;;;;;;;30.24;45.74;96150.64;127483;1093;113756;-95
2021/06/22 10:36:56;;;;;;;8.45;7.18;;;;;;;30.32;46.02;96144.63;127614;1091;30154;-95
2021/06/22 10:39:35;;;;;;;11.53;7.73;;;;;;;30.35;46.15;96143.79;127456;1093;114865;-96
2021/06/22 10:42:13;;;;;;;8.20;6.75;;;;;;;30.64;46.38;96135.07;127716;1093;69667;-96
2021/06/22 10:44:52;;;;;;;9.33;6.95;;;;;;;30.87;46.38;96142.45;127714;1093;48614;-95
2021/06/22 10:47:28;;;;;;;10.53;6.85;;;;;;;31.09;46.50;96138.05;127609;1093;112719;-95
2021/06/22 10:50:29;;;;;;;9.45;6.50;;;;;;;31.42;45.77;96138.16;127573;1093;32173;-96
2021/06/22 10:53:03;;;;;;;8.13;6.70;;;;;;;31.45;44.28;96142.78;127508;1093;112734;-94
2021/06/22 10:56:15;;;;;;;8.75;6.70;;;;;;;31.15;44.31;96139.11;127593;1093;27372;-93
2021/06/22 10:59:28;;;;;;;7.45;6.38;;;;;;;31.02;44.47;96138.98;127440;1093;113719;-93
2021/06/22 11:02:06;;;;;;;8.48;7.30;;;;;;;30.77;44.36;96141.45;127430;1093;34653;-95
2021/06/22 11:04:58;;;;;;;9.60;7.53;;;;;;;30.65;45.13;96142.86;127456;1093;113801;-94
2021/06/22 11:07:29;;;;;;;11.90;6.93;;;;;;;30.91;46.28;96148.61;127622;1092;26965;-90
2021/06/22 11:10:16;;;;;;;10.75;6.83;;;;;;;31.38;46.38;96143.70;127481;1093;113900;-91
2021/06/22 11:12:57;;;;;;;8.28;6.63;;;;;;;31.74;46.08;96140.18;127518;1093;22994;-91
2021/06/22 11:15:50;;;;;;;8.75;7.43;;;;;;;31.74;43.77;96135.47;127365;1093;114447;-94
2021/06/22 11:18:22;;;;;;;7.73;6.25;;;;;;;31.44;45.81;96127.55;127522;1092;27628;-95
2021/06/22 11:21:20;;;;;;;8.83;6.85;;;;;;;31.57;45.48;96129.19;127551;1092;23337;-90
2021/06/22 11:24:03;;;;;;;8.48;7.03;;;;;;;31.53;45.55;96119.48;127590;1093;114117;-89
2021/06/22 11:27:07;;;;;;;9.53;6.60;;;;;;;31.43;46.05;96117.79;127630;1093;25928;-88
2021/06/22 11:29:54;;;;;;;8.83;6.83;;;;;;;31.48;45.85;96114.53;127492;1093;114210;-90
2021/06/22 11:32:39;;;;;;;7.68;6.88;;;;;;;31.38;45.85;96118.28;127634;1092;26296;-89
2021/06/22 11:35:17;;;;;;;8.93;6.65;;;;;;;31.55;45.86;96122.59;127533;1093;113911;-89
2021/06/22 11:37:49;;;;;;;8.58;7.35;;;;;;;31.80;46.07;96120.03;127603;1093;24305;-88
2021/06/22 11:40:22;;;;;;;8.13;6.78;;;;;;;31.95;45.45;96109.48;127499;1092;114066;-90
2021/06/22 11:43:11;;;;;;;7.95;7.15;;;;;;;31.95;46.43;96114.97;127730;1092;23459;-91
2021/06/22 11:45:43;;;;;;;7.53;6.73;;;;;;;32.15;46.31;96106.64;127484;1093;113901;-91
2021/06/22 11:48:16;;;;;;;11.10;6.75;;;;;;;32.25;46.00;96111.08;127607;1093;24976;-91
2021/06/22 11:50:51;;;;;;;10.90;7.50;;;;;;;32.06;45.57;96099.02;127520;1093;22888;-92
2021/06/22 11:53:33;;;;;;;8.98;7.20;;;;;;;32.19;46.39;96107.30;127614;1093;113752;-89